Veribest, TX (76886)

4:32 PM CDT on July 24, 2017 (GMT -0500)
Concho Estates East | | Change Station
Active Advisory: Special Statement

Elev 1759 ft 31.54 °N, 100.24 °W | Updated 2 seconds ago

Partly Cloudy
Partly Cloudy
97.7 °F
Feels Like 102 °F
N
4.0
Wind Variable Wind from ESE
Gusts 4.0 mph

Today
High -- | Low -- °F
--% Chance of Precip.
Yesterday
High -- | Low -- °F
Precip. -- in
Pressure 29.93 in
Visibility 10.0 miles
Clouds Few 9000 ft
Scattered Clouds 11000 ft
Heat Index 102 °F
Dew Point 66 °F
Humidity 36%
Rainfall 0.01 in
Snow Depth Not available.
6:52 AM 8:42 PM
Waxing Crescent, 3% visible
SPECI KSJT 242111Z 12009KT 10SM TS FEW090 SCT110 35/16 A2993 RMK AO2 LTG DSNT N AND W TSB11 T03500156
Pressure 29.93 in
Visibility 10.0 miles
Clouds Few 9000 ft
Scattered Clouds 11000 ft
Heat Index 102 °F
Dew Point 66 °F
Humidity 36%
Rainfall 0.01 in
Snow Depth Not available.
6:52 AM 8:42 PM
Waxing Crescent, 3% visible
SPECI KSJT 242111Z 12009KT 10SM TS FEW090 SCT110 35/16 A2993 RMK AO2 LTG DSNT N AND W TSB11 T03500156

Get Your Daily Forecast Email!

Thanks for signing up!

Be on the lookout for a verification email in your inbox.

You'll start receiving severe weather alerts in your inbox..

×

10-Day Weather Forecast

Almanac

Astronomy

Jul. 24, 2017 Rise Set
Actual Time
Civil Twilight
Nautical Twilight
Astronomical Twilight
Moon
Length of Visible Light
Length of Day
Tomorrow will be .
, % of the Moon is Illuminated

Today's Extremes

State Highs State Lows

Community

WunderPhotos

Category 6

Welcome to Category 6. This is the collective home for Weather Underground's featured writeups by Dr. Jeff Masters (right), Bob Henson (left), Chris Burt, and other regular contributors.

Nearby

Air Quality

  Air Quality AQ Index Pollutant
Not available.

Snow Depth

Station Depth Elevation

Earthquake Activity

City Distance Mag. Time & Date
Minimum magnitude displayed is 2.5.

Coastal Water Temperatures

Place Temperature

Stations

Nearby Weather Stations

Station Location Temp. Windchill Dew Point Humidity Wind Precip. Elev Updated Type
                   

Watches & Warnings

Special Statement
Issued: 4:17 PM CDT Jul. 24, 2017 – National Weather Service

... Significant weather advisory for central Tom Green County until
445 PM CDT...

At 416 PM CDT, Doppler radar was tracking a strong thunderstorm near
Tankersley, or 9 miles southwest of San Angelo. This storm was
nearly stationary.

Winds in excess of 45 mph will be possible with this storm.

This storm will remain over mainly rural areas of central Tom Green
County, including the following locations: US-67 near the Irion-Tom
Green County line.

Lat... Lon 3149 10045 3127 10044 3126 10071 3151 10072
time... Mot... loc 2116z 161deg 2kt 3137 10058


Po